sensor_id;sensor_type;location;lat;lon;timestamp;temperature;humidity
31783;DHT22;18351;47.560;9.708;2023-02-03T00:00:35;5.40;99.90
31783;DHT22;18351;47.560;9.708;2023-02-03T00:03:01;5.40;99.90
31783;DHT22;18351;47.560;9.708;2023-02-03T00:05:27;5.40;99.90
31783;DHT22;18351;47.560;9.708;2023-02-03T00:07:52;5.40;99.90
31783;DHT22;18351;47.560;9.708;2023-02-03T00:10:18;5.30;99.90
31783;DHT22;18351;47.560;9.708;2023-02-03T00:12:51;5.30;99.90
31783;DHT22;18351;47.560;9.708;2023-02-03T00:15:20;5.20;99.90
31783;DHT22;18351;47.560;9.708;2023-02-03T00:17:47;5.20;99.90
31783;DHT22;18351;47.560;9.708;2023-02-03T00:20:13;5.30;99.90
31783;DHT22;18351;47.560;9.708;2023-02-03T00:22:38;5.30;99.90
31783;DHT22;18351;47.560;9.708;2023-02-03T00:25:04;5.40;99.90
31783;DHT22;18351;47.560;9.708;2023-02-03T00:27:31;5.30;99.90
31783;DHT22;18351;47.560;9.708;2023-02-03T00:29:56;5.30;99.90
31783;DHT22;18351;47.560;9.708;2023-02-03T00:32:22;5.30;99.90
31783;DHT22;18351;47.560;9.708;2023-02-03T00:34:47;5.30;99.90
31783;DHT22;18351;47.560;9.708;2023-02-03T00:37:13;5.20;99.90
31783;DHT22;18351;47.560;9.708;2023-02-03T00:39:39;5.20;99.90
31783;DHT22;18351;47.560;9.708;2023-02-03T00:42:05;5.20;99.90
31783;DHT22;18351;47.560;9.708;2023-02-03T00:44:30;5.20;99.90
31783;DHT22;18351;47.560;9.708;2023-02-03T00:46:56;5.20;99.90
31783;DHT22;18351;47.560;9.708;2023-02-03T00:49:22;5.20;99.90
31783;DHT22;18351;47.560;9.708;2023-02-03T00:51:48;5.20;99.90
31783;DHT22;18351;47.560;9.708;2023-02-03T00:54:14;5.20;99.90
31783;DHT22;18351;47.560;9.708;2023-02-03T00:56:39;5.20;99.90
31783;DHT22;18351;47.560;9.708;2023-02-03T00:59:05;5.20;99.90
31783;DHT22;18351;47.560;9.708;2023-02-03T01:01:32;5.20;99.90
31783;DHT22;18351;47.560;9.708;2023-02-03T01:03:57;5.20;99.90
31783;DHT22;18351;47.560;9.708;2023-02-03T01:06:23;5.20;99.90
31783;DHT22;18351;47.560;9.708;2023-02-03T01:08:49;5.30;99.90
31783;DHT22;18351;47.560;9.708;2023-02-03T01:11:18;5.30;99.90
31783;DHT22;18351;47.560;9.708;2023-02-03T01:13:44;5.20;99.90
31783;DHT22;18351;47.560;9.708;2023-02-03T01:16:11;5.30;99.90
31783;DHT22;18351;47.560;9.708;2023-02-03T01:18:37;5.20;99.90
31783;DHT22;18351;47.560;9.708;2023-02-03T01:21:25;5.30;99.90
31783;DHT22;18351;47.560;9.708;2023-02-03T01:23:50;5.30;99.90
31783;DHT22;18351;47.560;9.708;2023-02-03T01:26:19;5.40;99.90
31783;DHT22;18351;47.560;9.708;2023-02-03T01:28:53;5.30;99.90
31783;DHT22;18351;47.560;9.708;2023-02-03T01:31:25;5.40;99.90
31783;DHT22;18351;47.560;9.708;2023-02-03T01:33:52;5.40;99.90
31783;DHT22;18351;47.560;9.708;2023-02-03T01:36:20;5.40;99.90
31783;DHT22;18351;47.560;9.708;2023-02-03T01:38:46;5.40;99.90
31783;DHT22;18351;47.560;9.708;2023-02-03T01:41:17;5.50;99.90
31783;DHT22;18351;47.560;9.708;2023-02-03T01:43:46;5.50;99.90
31783;DHT22;18351;47.560;9.708;2023-02-03T01:52:03;5.50;99.90
31783;DHT22;18351;47.560;9.708;2023-02-03T01:54:31;5.50;99.90
31783;DHT22;18351;47.560;9.708;2023-02-03T01:57:03;5.50;99.90
31783;DHT22;18351;47.560;9.708;2023-02-03T01:59:30;5.50;99.90
31783;DHT22;18351;47.560;9.708;2023-02-03T02:01:59;5.50;99.90
31783;DHT22;18351;47.560;9.708;2023-02-03T02:04:28;5.50;99.90
31783;DHT22;18351;47.560;9.708;2023-02-03T02:06:58;5.50;99.90
31783;DHT22;18351;47.560;9.708;2023-02-03T02:09:25;5.60;99.90
31783;DHT22;18351;47.560;9.708;2023-02-03T02:11:51;5.60;99.90
31783;DHT22;18351;47.560;9.708;2023-02-03T02:14:16;5.60;99.90
31783;DHT22;18351;47.560;9.708;2023-02-03T02:16:54;5.60;99.90
31783;DHT22;18351;47.560;9.708;2023-02-03T02:30:09;5.70;99.90
31783;DHT22;18351;47.560;9.708;2023-02-03T02:41:23;5.70;99.90
31783;DHT22;18351;47.560;9.708;2023-02-03T02:44:29;5.70;99.90
31783;DHT22;18351;47.560;9.708;2023-02-03T02:46:49;5.70;99.90
31783;DHT22;18351;47.560;9.708;2023-02-03T02:49:40;5.70;99.90
31783;DHT22;18351;47.560;9.708;2023-02-03T02:52:08;5.70;99.90
31783;DHT22;18351;47.560;9.708;2023-02-03T02:54:39;5.70;99.90
31783;DHT22;18351;47.560;9.708;2023-02-03T02:57:09;5.80;99.90
31783;DHT22;18351;47.560;9.708;2023-02-03T02:59:36;5.80;99.90
31783;DHT22;18351;47.560;9.708;2023-02-03T03:02:01;5.80;99.90
31783;DHT22;18351;47.560;9.708;2023-02-03T03:04:30;5.90;99.90
31783;DHT22;18351;47.560;9.708;2023-02-03T03:07:29;5.90;99.90
31783;DHT22;18351;47.560;9.708;2023-02-03T03:10:03;5.90;99.90
31783;DHT22;18351;47.560;9.708;2023-02-03T03:12:34;5.80;99.90
31783;DHT22;18351;47.560;9.708;2023-02-03T03:15:05;5.80;99.90
31783;DHT22;18351;47.560;9.708;2023-02-03T03:17:35;5.80;99.90
31783;DHT22;18351;47.560;9.708;2023-02-03T03:20:06;5.80;99.90
31783;DHT22;18351;47.560;9.708;2023-02-03T03:22:37;5.80;99.90
31783;DHT22;18351;47.560;9.708;2023-02-03T03:25:12;5.80;99.90
31783;DHT22;18351;47.560;9.708;2023-02-03T03:27:43;5.70;99.90
31783;DHT22;18351;47.560;9.708;2023-02-03T03:30:16;5.70;99.90
31783;DHT22;18351;47.560;9.708;2023-02-03T03:32:43;5.70;99.90
31783;DHT22;18351;47.560;9.708;2023-02-03T03:35:09;5.60;99.90
31783;DHT22;18351;47.560;9.708;2023-02-03T03:40:17;5.60;99.90
31783;DHT22;18351;47.560;9.708;2023-02-03T03:42:50;5.60;99.90
31783;DHT22;18351;47.560;9.708;2023-02-03T03:45:27;5.50;99.90
31783;DHT22;18351;47.560;9.708;2023-02-03T03:48:13;5.40;99.90
31783;DHT22;18351;47.560;9.708;2023-02-03T03:50:43;5.40;99.90
31783;DHT22;18351;47.560;9.708;2023-02-03T03:53:10;5.30;99.90
31783;DHT22;18351;47.560;9.708;2023-02-03T03:55:39;5.40;99.90
31783;DHT22;18351;47.560;9.708;2023-02-03T03:58:09;5.40;99.90
31783;DHT22;18351;47.560;9.708;2023-02-03T04:00:39;5.30;99.90
31783;DHT22;18351;47.560;9.708;2023-02-03T04:03:22;5.40;99.90
31783;DHT22;18351;47.560;9.708;2023-02-03T04:05:48;5.30;99.90
31783;DHT22;18351;47.560;9.708;2023-02-03T04:08:14;5.20;99.90
31783;DHT22;18351;47.560;9.708;2023-02-03T04:10:41;5.20;99.90
31783;DHT22;18351;47.560;9.708;2023-02-03T04:13:08;5.20;99.90
31783;DHT22;18351;47.560;9.708;2023-02-03T04:15:34;5.20;99.90
31783;DHT22;18351;47.560;9.708;2023-02-03T04:18:00;5.20;99.90
31783;DHT22;18351;47.560;9.708;2023-02-03T04:20:27;5.30;99.90
31783;DHT22;18351;47.560;9.708;2023-02-03T04:22:53;5.20;99.90
31783;DHT22;18351;47.560;9.708;2023-02-03T04:25:19;5.20;99.90
31783;DHT22;18351;47.560;9.708;2023-02-03T04:27:44;5.30;99.90
31783;DHT22;18351;47.560;9.708;2023-02-03T04:30:11;5.20;99.90
31783;DHT22;18351;47.560;9.708;2023-02-03T04:32:37;5.20;99.90
31783;DHT22;18351;47.560;9.708;2023-02-03T04:35:03;5.20;99.90
31783;DHT22;18351;47.560;9.708;2023-02-03T04:37:29;5.20;99.90
31783;DHT22;18351;47.560;9.708;2023-02-03T04:39:55;5.20;99.90
31783;DHT22;18351;47.560;9.708;2023-02-03T04:42:21;5.20;99.90
31783;DHT22;18351;47.560;9.708;2023-02-03T04:44:48;5.20;99.90
31783;DHT22;18351;47.560;9.708;2023-02-03T04:47:14;5.20;99.90
31783;DHT22;18351;47.560;9.708;2023-02-03T04:49:40;5.20;99.90
31783;DHT22;18351;47.560;9.708;2023-02-03T04:52:06;5.20;99.90
31783;DHT22;18351;47.560;9.708;2023-02-03T04:54:32;5.10;99.90
31783;DHT22;18351;47.560;9.708;2023-02-03T04:56:58;5.00;99.90
31783;DHT22;18351;47.560;9.708;2023-02-03T04:59:24;4.90;99.90
31783;DHT22;18351;47.560;9.708;2023-02-03T05:01:49;4.90;99.90
31783;DHT22;18351;47.560;9.708;2023-02-03T05:04:15;4.90;99.90
31783;DHT22;18351;47.560;9.708;2023-02-03T05:06:40;5.00;99.90
31783;DHT22;18351;47.560;9.708;2023-02-03T05:09:06;4.90;99.90
31783;DHT22;18351;47.560;9.708;2023-02-03T05:11:32;4.80;99.90
31783;DHT22;18351;47.560;9.708;2023-02-03T05:13:57;4.80;99.90
31783;DHT22;18351;47.560;9.708;2023-02-03T05:16:23;4.80;99.90
31783;DHT22;18351;47.560;9.708;2023-02-03T05:18:49;4.90;99.90
31783;DHT22;18351;47.560;9.708;2023-02-03T05:21:14;4.90;99.90
31783;DHT22;18351;47.560;9.708;2023-02-03T05:23:40;4.80;99.90
31783;DHT22;18351;47.560;9.708;2023-02-03T05:26:06;4.90;99.90
31783;DHT22;18351;47.560;9.708;2023-02-03T05:28:31;4.90;99.90
31783;DHT22;18351;47.560;9.708;2023-02-03T05:31:01;4.90;99.90
31783;DHT22;18351;47.560;9.708;2023-02-03T05:33:27;4.90;99.90
31783;DHT22;18351;47.560;9.708;2023-02-03T05:35:53;5.00;99.90
31783;DHT22;18351;47.560;9.708;2023-02-03T05:38:19;5.00;99.90
31783;DHT22;18351;47.560;9.708;2023-02-03T05:40:48;5.00;99.90
31783;DHT22;18351;47.560;9.708;2023-02-03T05:43:33;5.10;99.90
31783;DHT22;18351;47.560;9.708;2023-02-03T05:46:03;5.20;99.90
31783;DHT22;18351;47.560;9.708;2023-02-03T05:48:29;5.20;99.90
31783;DHT22;18351;47.560;9.708;2023-02-03T05:50:55;5.30;99.90
31783;DHT22;18351;47.560;9.708;2023-02-03T05:53:21;5.40;99.90
31783;DHT22;18351;47.560;9.708;2023-02-03T05:55:47;5.50;99.90
31783;DHT22;18351;47.560;9.708;2023-02-03T05:58:13;5.50;99.90
31783;DHT22;18351;47.560;9.708;2023-02-03T06:00:38;5.50;99.90
31783;DHT22;18351;47.560;9.708;2023-02-03T06:03:04;5.50;99.90
31783;DHT22;18351;47.560;9.708;2023-02-03T06:05:31;5.60;99.90
31783;DHT22;18351;47.560;9.708;2023-02-03T06:07:56;5.60;99.90
31783;DHT22;18351;47.560;9.708;2023-02-03T06:10:22;5.60;99.90
31783;DHT22;18351;47.560;9.708;2023-02-03T06:12:48;5.60;99.90
31783;DHT22;18351;47.560;9.708;2023-02-03T06:15:14;5.60;99.90
31783;DHT22;18351;47.560;9.708;2023-02-03T06:17:46;5.70;99.90
31783;DHT22;18351;47.560;9.708;2023-02-03T06:20:14;5.80;99.90
31783;DHT22;18351;47.560;9.708;2023-02-03T06:22:39;5.80;99.90
31783;DHT22;18351;47.560;9.708;2023-02-03T06:25:05;5.90;99.90
31783;DHT22;18351;47.560;9.708;2023-02-03T06:27:31;5.90;99.90
31783;DHT22;18351;47.560;9.708;2023-02-03T06:29:56;5.90;99.90
31783;DHT22;18351;47.560;9.708;2023-02-03T06:32:22;5.90;99.90
31783;DHT22;18351;47.560;9.708;2023-02-03T06:34:47;5.90;99.90
31783;DHT22;18351;47.560;9.708;2023-02-03T06:37:13;6.00;99.90
31783;DHT22;18351;47.560;9.708;2023-02-03T06:39:39;6.00;99.90
31783;DHT22;18351;47.560;9.708;2023-02-03T06:42:05;6.00;99.90
31783;DHT22;18351;47.560;9.708;2023-02-03T06:44:30;5.90;99.90
31783;DHT22;18351;47.560;9.708;2023-02-03T06:46:56;5.90;99.90
31783;DHT22;18351;47.560;9.708;2023-02-03T06:49:23;5.90;99.90
31783;DHT22;18351;47.560;9.708;2023-02-03T06:51:48;5.80;99.90
31783;DHT22;18351;47.560;9.708;2023-02-03T06:54:14;5.70;99.90
31783;DHT22;18351;47.560;9.708;2023-02-03T06:56:39;5.70;99.90
31783;DHT22;18351;47.560;9.708;2023-02-03T06:59:05;5.70;99.90
31783;DHT22;18351;47.560;9.708;2023-02-03T07:01:31;5.80;99.90
31783;DHT22;18351;47.560;9.708;2023-02-03T07:03:57;5.70;99.90
31783;DHT22;18351;47.560;9.708;2023-02-03T07:06:27;5.70;99.90
31783;DHT22;18351;47.560;9.708;2023-02-03T07:08:57;5.70;99.90
31783;DHT22;18351;47.560;9.708;2023-02-03T07:11:24;5.80;99.90
31783;DHT22;18351;47.560;9.708;2023-02-03T07:13:50;5.90;99.90
31783;DHT22;18351;47.560;9.708;2023-02-03T07:16:16;5.90;99.90
31783;DHT22;18351;47.560;9.708;2023-02-03T07:18:41;6.00;99.90
31783;DHT22;18351;47.560;9.708;2023-02-03T07:21:07;6.10;99.90
31783;DHT22;18351;47.560;9.708;2023-02-03T07:23:32;6.10;99.90
31783;DHT22;18351;47.560;9.708;2023-02-03T07:25:59;6.20;99.90
31783;DHT22;18351;47.560;9.708;2023-02-03T07:28:25;6.20;99.90
31783;DHT22;18351;47.560;9.708;2023-02-03T07:30:50;6.20;99.90
31783;DHT22;18351;47.560;9.708;2023-02-03T07:33:16;6.30;99.90
31783;DHT22;18351;47.560;9.708;2023-02-03T07:35:41;6.30;99.90
31783;DHT22;18351;47.560;9.708;2023-02-03T07:38:07;6.30;99.90
31783;DHT22;18351;47.560;9.708;2023-02-03T07:40:32;6.40;99.90
31783;DHT22;18351;47.560;9.708;2023-02-03T07:42:58;6.30;99.90
31783;DHT22;18351;47.560;9.708;2023-02-03T07:45:24;6.30;99.90
31783;DHT22;18351;47.560;9.708;2023-02-03T07:47:50;6.40;99.90
31783;DHT22;18351;47.560;9.708;2023-02-03T07:50:16;6.40;99.90
31783;DHT22;18351;47.560;9.708;2023-02-03T07:52:41;6.40;99.90
31783;DHT22;18351;47.560;9.708;2023-02-03T07:55:07;6.40;99.90
31783;DHT22;18351;47.560;9.708;2023-02-03T07:57:33;6.50;99.90
31783;DHT22;18351;47.560;9.708;2023-02-03T07:59:59;6.50;99.90
31783;DHT22;18351;47.560;9.708;2023-02-03T08:02:24;6.40;99.90
31783;DHT22;18351;47.560;9.708;2023-02-03T08:04:50;6.50;99.90
31783;DHT22;18351;47.560;9.708;2023-02-03T08:07:15;6.50;99.90
31783;DHT22;18351;47.560;9.708;2023-02-03T08:09:41;6.50;99.90
31783;DHT22;18351;47.560;9.708;2023-02-03T08:12:07;6.40;99.90
31783;DHT22;18351;47.560;9.708;2023-02-03T08:14:32;6.50;99.90
31783;DHT22;18351;47.560;9.708;2023-02-03T08:16:58;6.50;99.90
31783;DHT22;18351;47.560;9.708;2023-02-03T08:19:24;6.50;99.90
31783;DHT22;18351;47.560;9.708;2023-02-03T08:21:50;6.50;99.90
31783;DHT22;18351;47.560;9.708;2023-02-03T08:24:15;6.50;99.90
31783;DHT22;18351;47.560;9.708;2023-02-03T08:26:41;6.50;99.90
31783;DHT22;18351;47.560;9.708;2023-02-03T08:29:06;6.40;99.90
31783;DHT22;18351;47.560;9.708;2023-02-03T08:31:32;6.50;99.90
31783;DHT22;18351;47.560;9.708;2023-02-03T08:33:58;6.40;99.90
31783;DHT22;18351;47.560;9.708;2023-02-03T08:36:24;6.50;99.90
31783;DHT22;18351;47.560;9.708;2023-02-03T08:38:49;6.40;99.90
31783;DHT22;18351;47.560;9.708;2023-02-03T08:41:16;6.50;99.90
31783;DHT22;18351;47.560;9.708;2023-02-03T08:43:43;6.50;99.90
31783;DHT22;18351;47.560;9.708;2023-02-03T08:46:10;6.50;99.90
31783;DHT22;18351;47.560;9.708;2023-02-03T08:48:36;6.50;99.90
31783;DHT22;18351;47.560;9.708;2023-02-03T08:51:07;6.70;99.90
31783;DHT22;18351;47.560;9.708;2023-02-03T08:53:33;6.70;99.90
31783;DHT22;18351;47.560;9.708;2023-02-03T08:58:32;6.90;99.90
31783;DHT22;18351;47.560;9.708;2023-02-03T09:01:12;7.00;99.90
31783;DHT22;18351;47.560;9.708;2023-02-03T09:03:39;7.00;99.90
31783;DHT22;18351;47.560;9.708;2023-02-03T09:06:06;7.00;99.90
31783;DHT22;18351;47.560;9.708;2023-02-03T09:08:32;7.00;99.90
31783;DHT22;18351;47.560;9.708;2023-02-03T09:10:58;7.20;99.90
31783;DHT22;18351;47.560;9.708;2023-02-03T09:13:24;7.30;99.90
31783;DHT22;18351;47.560;9.708;2023-02-03T09:15:49;7.40;99.90
31783;DHT22;18351;47.560;9.708;2023-02-03T09:18:15;7.50;99.90
31783;DHT22;18351;47.560;9.708;2023-02-03T09:20:41;7.60;99.90
31783;DHT22;18351;47.560;9.708;2023-02-03T09:23:06;7.70;99.90
31783;DHT22;18351;47.560;9.708;2023-02-03T09:25:32;7.80;99.90
31783;DHT22;18351;47.560;9.708;2023-02-03T09:28:00;7.90;99.90
31783;DHT22;18351;47.560;9.708;2023-02-03T09:30:26;7.90;99.90
31783;DHT22;18351;47.560;9.708;2023-02-03T09:32:53;7.90;99.90
31783;DHT22;18351;47.560;9.708;2023-02-03T09:35:21;7.90;99.90
31783;DHT22;18351;47.560;9.708;2023-02-03T09:37:46;8.00;99.90
31783;DHT22;18351;47.560;9.708;2023-02-03T09:40:20;7.90;99.90
31783;DHT22;18351;47.560;9.708;2023-02-03T09:43:16;7.90;99.90
31783;DHT22;18351;47.560;9.708;2023-02-03T09:45:44;7.90;99.90
31783;DHT22;18351;47.560;9.708;2023-02-03T09:48:22;7.90;99.90
31783;DHT22;18351;47.560;9.708;2023-02-03T09:50:49;7.90;99.90
31783;DHT22;18351;47.560;9.708;2023-02-03T09:53:41;7.80;99.90
31783;DHT22;18351;47.560;9.708;2023-02-03T09:56:30;7.70;99.90
31783;DHT22;18351;47.560;9.708;2023-02-03T09:58:56;7.70;99.90
31783;DHT22;18351;47.560;9.708;2023-02-03T10:01:26;7.60;99.90
31783;DHT22;18351;47.560;9.708;2023-02-03T10:12:10;8.10;99.90
31783;DHT22;18351;47.560;9.708;2023-02-03T10:19:45;8.50;99.90
31783;DHT22;18351;47.560;9.708;2023-02-03T10:22:22;8.50;99.60
31783;DHT22;18351;47.560;9.708;2023-02-03T10:24:57;8.60;98.70
31783;DHT22;18351;47.560;9.708;2023-02-03T10:27:24;8.70;98.40
31783;DHT22;18351;47.560;9.708;2023-02-03T10:29:59;8.90;98.90
31783;DHT22;18351;47.560;9.708;2023-02-03T10:32:26;9.00;97.60
31783;DHT22;18351;47.560;9.708;2023-02-03T10:34:52;9.10;96.10
31783;DHT22;18351;47.560;9.708;2023-02-03T10:37:40;9.10;96.00
31783;DHT22;18351;47.560;9.708;2023-02-03T10:40:14;9.10;95.70
31783;DHT22;18351;47.560;9.708;2023-02-03T10:42:42;9.20;95.80
31783;DHT22;18351;47.560;9.708;2023-02-03T10:45:28;9.20;95.60
31783;DHT22;18351;47.560;9.708;2023-02-03T10:47:55;9.20;94.70
31783;DHT22;18351;47.560;9.708;2023-02-03T10:50:24;9.30;94.50
31783;DHT22;18351;47.560;9.708;2023-02-03T10:53:25;9.40;94.60
31783;DHT22;18351;47.560;9.708;2023-02-03T10:56:09;9.50;94.80
31783;DHT22;18351;47.560;9.708;2023-02-03T10:58:37;9.60;93.80
31783;DHT22;18351;47.560;9.708;2023-02-03T11:01:10;9.70;93.30
31783;DHT22;18351;47.560;9.708;2023-02-03T11:03:37;9.70;93.80
31783;DHT22;18351;47.560;9.708;2023-02-03T11:06:15;9.80;93.90
31783;DHT22;18351;47.560;9.708;2023-02-03T11:08:43;9.90;94.50
31783;DHT22;18351;47.560;9.708;2023-02-03T11:11:18;9.90;93.90
31783;DHT22;18351;47.560;9.708;2023-02-03T11:13:45;9.80;94.10
31783;DHT22;18351;47.560;9.708;2023-02-03T11:16:17;9.80;93.80
31783;DHT22;18351;47.560;9.708;2023-02-03T11:19:16;9.70;93.30
31783;DHT22;18351;47.560;9.708;2023-02-03T11:21:45;9.50;93.50
31783;DHT22;18351;47.560;9.708;2023-02-03T11:24:30;9.40;93.60
31783;DHT22;18351;47.560;9.708;2023-02-03T11:27:17;9.30;94.10
31783;DHT22;18351;47.560;9.708;2023-02-03T11:29:46;9.20;94.20
31783;DHT22;18351;47.560;9.708;2023-02-03T11:32:16;9.10;93.80
31783;DHT22;18351;47.560;9.708;2023-02-03T11:37:46;9.00;94.60
31783;DHT22;18351;47.560;9.708;2023-02-03T11:40:28;8.90;95.10
31783;DHT22;18351;47.560;9.708;2023-02-03T11:45:26;9.10;94.20
31783;DHT22;18351;47.560;9.708;2023-02-03T11:48:23;9.00;94.30
31783;DHT22;18351;47.560;9.708;2023-02-03T11:51:14;8.90;94.20
31783;DHT22;18351;47.560;9.708;2023-02-03T11:56:42;8.80;94.30
31783;DHT22;18351;47.560;9.708;2023-02-03T11:59:20;8.80;94.50
31783;DHT22;18351;47.560;9.708;2023-02-03T12:07:41;8.80;95.10
31783;DHT22;18351;47.560;9.708;2023-02-03T12:10:30;8.80;94.10
31783;DHT22;18351;47.560;9.708;2023-02-03T12:15:38;8.90;94.90
31783;DHT22;18351;47.560;9.708;2023-02-03T12:21:12;8.90;94.70
31783;DHT22;18351;47.560;9.708;2023-02-03T12:23:55;8.80;94.60
31783;DHT22;18351;47.560;9.708;2023-02-03T12:26:24;8.80;95.80
31783;DHT22;18351;47.560;9.708;2023-02-03T12:29:00;8.80;96.20
31783;DHT22;18351;47.560;9.708;2023-02-03T12:31:53;8.70;95.90
31783;DHT22;18351;47.560;9.708;2023-02-03T12:34:38;8.80;96.30
31783;DHT22;18351;47.560;9.708;2023-02-03T12:37:11;8.70;95.60
31783;DHT22;18351;47.560;9.708;2023-02-03T12:39:40;8.80;95.80
31783;DHT22;18351;47.560;9.708;2023-02-03T12:42:34;8.70;95.30
31783;DHT22;18351;47.560;9.708;2023-02-03T12:45:07;8.70;95.30
31783;DHT22;18351;47.560;9.708;2023-02-03T12:47:46;8.70;95.80
31783;DHT22;18351;47.560;9.708;2023-02-03T12:50:28;8.70;96.10
31783;DHT22;18351;47.560;9.708;2023-02-03T12:55:33;8.70;96.30
31783;DHT22;18351;47.560;9.708;2023-02-03T12:58:05;8.60;96.10
31783;DHT22;18351;47.560;9.708;2023-02-03T13:11:51;8.70;95.90
31783;DHT22;18351;47.560;9.708;2023-02-03T13:14:35;8.70;95.70
31783;DHT22;18351;47.560;9.708;2023-02-03T13:19:45;8.90;94.50
31783;DHT22;18351;47.560;9.708;2023-02-03T13:22:13;8.90;95.20
31783;DHT22;18351;47.560;9.708;2023-02-03T13:24:47;8.90;95.00
31783;DHT22;18351;47.560;9.708;2023-02-03T13:30:16;9.00;94.50
31783;DHT22;18351;47.560;9.708;2023-02-03T13:35:53;9.10;93.90
31783;DHT22;18351;47.560;9.708;2023-02-03T13:38:36;9.00;94.50
31783;DHT22;18351;47.560;9.708;2023-02-03T13:41:18;9.00;94.80
31783;DHT22;18351;47.560;9.708;2023-02-03T13:43:49;9.00;94.50
31783;DHT22;18351;47.560;9.708;2023-02-03T13:46:33;9.00;95.10
31783;DHT22;18351;47.560;9.708;2023-02-03T13:49:01;9.00;94.60
31783;DHT22;18351;47.560;9.708;2023-02-03T13:51:42;9.00;94.70
31783;DHT22;18351;47.560;9.708;2023-02-03T13:54:27;8.90;94.80
31783;DHT22;18351;47.560;9.708;2023-02-03T13:57:00;8.90;95.30
31783;DHT22;18351;47.560;9.708;2023-02-03T14:07:36;8.90;96.00
31783;DHT22;18351;47.560;9.708;2023-02-03T14:12:53;8.90;96.20
31783;DHT22;18351;47.560;9.708;2023-02-03T14:17:55;8.90;96.20
31783;DHT22;18351;47.560;9.708;2023-02-03T14:25:54;8.90;95.90
31783;DHT22;18351;47.560;9.708;2023-02-03T14:28:19;8.80;96.40
31783;DHT22;18351;47.560;9.708;2023-02-03T14:31:25;8.70;96.50
31783;DHT22;18351;47.560;9.708;2023-02-03T14:34:04;8.60;96.60
31783;DHT22;18351;47.560;9.708;2023-02-03T14:36:52;8.60;97.20
31783;DHT22;18351;47.560;9.708;2023-02-03T14:42:14;8.60;97.10
31783;DHT22;18351;47.560;9.708;2023-02-03T14:47:21;8.60;97.40
31783;DHT22;18351;47.560;9.708;2023-02-03T14:50:04;8.50;98.10
31783;DHT22;18351;47.560;9.708;2023-02-03T14:52:48;8.50;97.40
31783;DHT22;18351;47.560;9.708;2023-02-03T14:55:56;8.50;98.20
31783;DHT22;18351;47.560;9.708;2023-02-03T14:58:44;8.50;98.40
31783;DHT22;18351;47.560;9.708;2023-02-03T15:06:44;8.40;99.10
31783;DHT22;18351;47.560;9.708;2023-02-03T15:09:37;8.40;99.50
31783;DHT22;18351;47.560;9.708;2023-02-03T15:12:24;8.40;99.80
31783;DHT22;18351;47.560;9.708;2023-02-03T15:14:51;8.40;99.50
31783;DHT22;18351;47.560;9.708;2023-02-03T15:17:25;8.40;99.90
31783;DHT22;18351;47.560;9.708;2023-02-03T15:19:52;8.30;99.50
31783;DHT22;18351;47.560;9.708;2023-02-03T15:22:20;8.30;99.70
31783;DHT22;18351;47.560;9.708;2023-02-03T15:24:47;8.30;99.10
31783;DHT22;18351;47.560;9.708;2023-02-03T15:27:25;8.30;99.10
31783;DHT22;18351;47.560;9.708;2023-02-03T15:29:50;8.30;99.00
31783;DHT22;18351;47.560;9.708;2023-02-03T15:32:30;8.20;99.20
31783;DHT22;18351;47.560;9.708;2023-02-03T15:34:59;8.20;99.30
31783;DHT22;18351;47.560;9.708;2023-02-03T15:37:31;8.20;99.50
31783;DHT22;18351;47.560;9.708;2023-02-03T15:40:00;8.20;99.70
31783;DHT22;18351;47.560;9.708;2023-02-03T15:42:38;8.20;99.30
31783;DHT22;18351;47.560;9.708;2023-02-03T15:45:18;8.20;99.60
31783;DHT22;18351;47.560;9.708;2023-02-03T15:48:03;8.10;99.90
31783;DHT22;18351;47.560;9.708;2023-02-03T15:53:21;8.10;99.90
31783;DHT22;18351;47.560;9.708;2023-02-03T15:55:50;8.10;99.90
31783;DHT22;18351;47.560;9.708;2023-02-03T15:58:24;8.10;99.90
31783;DHT22;18351;47.560;9.708;2023-02-03T16:00:53;8.00;99.90
31783;DHT22;18351;47.560;9.708;2023-02-03T16:03:32;8.00;99.90
31783;DHT22;18351;47.560;9.708;2023-02-03T16:06:30;8.00;99.90
31783;DHT22;18351;47.560;9.708;2023-02-03T16:09:00;7.90;99.90
31783;DHT22;18351;47.560;9.708;2023-02-03T16:11:35;7.90;99.90
31783;DHT22;18351;47.560;9.708;2023-02-03T16:14:11;7.90;99.90
31783;DHT22;18351;47.560;9.708;2023-02-03T16:16:54;7.90;99.90
31783;DHT22;18351;47.560;9.708;2023-02-03T16:19:21;7.80;99.90
31783;DHT22;18351;47.560;9.708;2023-02-03T16:21:54;7.80;99.90
31783;DHT22;18351;47.560;9.708;2023-02-03T16:35:53;7.80;99.90
31783;DHT22;18351;47.560;9.708;2023-02-03T16:38:36;7.70;99.90
31783;DHT22;18351;47.560;9.708;2023-02-03T16:41:20;7.70;99.90
31783;DHT22;18351;47.560;9.708;2023-02-03T16:44:05;7.70;99.90
31783;DHT22;18351;47.560;9.708;2023-02-03T16:46:49;7.70;99.90
31783;DHT22;18351;47.560;9.708;2023-02-03T16:49:33;7.70;99.90
31783;DHT22;18351;47.560;9.708;2023-02-03T16:52:17;7.60;99.90
31783;DHT22;18351;47.560;9.708;2023-02-03T16:54:42;7.60;99.90
31783;DHT22;18351;47.560;9.708;2023-02-03T16:57:08;7.70;99.90
31783;DHT22;18351;47.560;9.708;2023-02-03T16:59:33;7.60;99.90
31783;DHT22;18351;47.560;9.708;2023-02-03T17:01:59;7.60;99.90
31783;DHT22;18351;47.560;9.708;2023-02-03T17:04:25;7.60;99.90
31783;DHT22;18351;47.560;9.708;2023-02-03T17:06:51;7.60;99.90
31783;DHT22;18351;47.560;9.708;2023-02-03T17:09:17;7.70;99.90
31783;DHT22;18351;47.560;9.708;2023-02-03T17:11:47;7.70;99.90
31783;DHT22;18351;47.560;9.708;2023-02-03T17:14:13;7.70;99.90
31783;DHT22;18351;47.560;9.708;2023-02-03T17:16:39;7.70;99.90
31783;DHT22;18351;47.560;9.708;2023-02-03T17:19:04;7.70;99.90
31783;DHT22;18351;47.560;9.708;2023-02-03T17:21:30;7.80;99.90
31783;DHT22;18351;47.560;9.708;2023-02-03T17:23:57;7.80;99.90
31783;DHT22;18351;47.560;9.708;2023-02-03T17:26:23;7.70;99.90
31783;DHT22;18351;47.560;9.708;2023-02-03T17:28:48;7.70;99.90
31783;DHT22;18351;47.560;9.708;2023-02-03T17:31:16;7.70;99.90
31783;DHT22;18351;47.560;9.708;2023-02-03T17:33:42;7.70;99.90
31783;DHT22;18351;47.560;9.708;2023-02-03T17:36:14;7.70;99.90
31783;DHT22;18351;47.560;9.708;2023-02-03T17:38:45;7.70;99.90
31783;DHT22;18351;47.560;9.708;2023-02-03T17:41:13;7.60;99.90
31783;DHT22;18351;47.560;9.708;2023-02-03T17:43:39;7.60;99.90
31783;DHT22;18351;47.560;9.708;2023-02-03T17:46:06;7.70;99.90
31783;DHT22;18351;47.560;9.708;2023-02-03T17:48:31;7.60;99.90
31783;DHT22;18351;47.560;9.708;2023-02-03T17:51:15;7.60;99.90
31783;DHT22;18351;47.560;9.708;2023-02-03T17:53:42;7.60;99.90
31783;DHT22;18351;47.560;9.708;2023-02-03T17:56:15;7.70;99.90
31783;DHT22;18351;47.560;9.708;2023-02-03T17:58:42;7.60;99.90
31783;DHT22;18351;47.560;9.708;2023-02-03T18:01:09;7.60;99.90
31783;DHT22;18351;47.560;9.708;2023-02-03T18:03:40;7.60;99.90
31783;DHT22;18351;47.560;9.708;2023-02-03T18:06:06;7.60;99.90
31783;DHT22;18351;47.560;9.708;2023-02-03T18:08:32;7.60;99.90
31783;DHT22;18351;47.560;9.708;2023-02-03T18:10:59;7.70;99.90
31783;DHT22;18351;47.560;9.708;2023-02-03T18:13:25;7.70;99.90
31783;DHT22;18351;47.560;9.708;2023-02-03T18:15:51;7.60;99.90